Hardinsburg, IN (47125)

12:09 PM EST on February 14, 2016 (GMT -0500)
Uplands PEAK Sanctuary | | Change Station
CLOSE
Current Station
Personal Weather Station
Location: Salem, IN
Elevation: 761 ft
Nearby Weather Stations
Active Advisory: Winter Weather Advisory

Elev 761 ft 38.49 °N, 86.17 °W | Updated 15 minutes ago

Overcast
Overcast
19.8 °F
Feels Like 10 °F
N
7.8
Wind Variable Wind from SW

Today
High -- | Low -- °F
--% Chance of Precip.
Yesterday
High -- | Low -- °F
Precip. -- in
Pressure 30.25 in
Visibility 5.0 miles
Clouds Few 2600 ft
Scattered Clouds 3100 ft
Mostly Cloudy 3700 ft
Windchill 10 °F
Dew Point 14 °F
Humidity 78%
Rainfall 0.00 in
Snow Depth Not available.
7:37 AM 6:21 PM
Waxing Crescent, 43% visible
METAR KHNB 141655Z AUTO 12014G21KT 5SM FEW026 SCT031 BKN037 M06/M11 A3025 RMK AO1
Pressure 30.25 in
Visibility 5.0 miles
Clouds Few 2600 ft
Scattered Clouds 3100 ft
Mostly Cloudy 3700 ft
Windchill 10 °F
Dew Point 14 °F
Humidity 78%
Rainfall 0.00 in
Snow Depth Not available.
7:37 AM 6:21 PM
Waxing Crescent, 43% visible
METAR KHNB 141655Z AUTO 12014G21KT 5SM FEW026 SCT031 BKN037 M06/M11 A3025 RMK AO1

10-Day Weather Forecast

Almanac

Astronomy

Feb. 14, 2016 Rise Set
Actual Time
Civil Twilight
Nautical Twilight
Astronomical Twilight
Moon
Length of Visible Light
Length of Day
Tomorrow will be .
, % of the Moon is Illuminated

Today's Extremes

State Highs State Lows

Community

WunderPhotos

Upload Photos

1,892,849 photos uploaded!

WunderBlog® & News

Nearby

Air Quality

  Air Quality AQ Index Pollutant
Not available.

Snow Depth

Station Depth Elevation

Earthquake Activity

City Distance Mag. Time & Date
Minimum magnitude displayed is 2.5.

Coastal Water Temperatures

Place Temperature

Stations

Nearby Weather Stations

Station Location Temp. Windchill Dew Point Humidity Wind Precip. Elev Updated Type
                   

Watches & Warnings

Winter Weather Advisory
Issued: 11:45 AM EST Feb. 14, 2016 – National Weather Service

... Winter Weather Advisory remains in effect until 10 am EST
Monday...

* timing... accumulating snows will develop by mid afternoon and
continue through this evening.

* Accumulations... 2 to 4 inches... with locally higher amounts
possible.

* Impacts... there is a chance of a brief period of freezing
drizzle late Sunday night before transitioning to drizzle or
rain Monday morning.

Precautionary/preparedness actions...

A Winter Weather Advisory for snow means that periods of snow
will cause primarily travel difficulties. Be prepared for snow
covered roads and limited visibilities... and use caution while
driving.